Terminal Aerodrome Forecast
Issued by NWS Charleston, WV

Current Version | Previous Version | Graphics & Text | Print | Product List | Glossary On
Versions: 1 2 3 4 5 6 7 8 9 10 11 12 13 14 15 16 17 18 19 20 21
000
FTUS41 KRLX 192300 RRA
TAFBKW
TAF
KBKW 192342Z 2000/2024 21011G18KT P6SM SCT110
     FM200200 23009KT P6SM BKN080
     FM200700 25006KT P6SM BKN025
     FM200900 25007KT P6SM BKN015
     FM201200 26005KT 3SM -SHSN BKN010
     FM201400 27009G19KT P6SM BKN015
     FM201700 27011G22KT P6SM BKN025
     FM202000 27011G19KT P6SM BKN035=

USA.gov is the U.S. government's official web portal to all federal, state and local government web resources and services.